createdAt,value
2022-10-06T00:00:54.868Z,101719.06
2022-10-06T00:03:23.100Z,101728.06
2022-10-06T00:05:51.256Z,101713.84
2022-10-06T00:08:19.098Z,101722.13
2022-10-06T00:10:45.955Z,101721.19
2022-10-06T00:13:12.789Z,101715.88
2022-10-06T00:15:39.755Z,101723.09
2022-10-06T00:18:06.921Z,101711.66
2022-10-06T00:20:33.738Z,101716.00
2022-10-06T00:23:00.630Z,101722.34
2022-10-06T00:25:28.262Z,101709.22
2022-10-06T00:27:55.501Z,101714.41
2022-10-06T00:30:24.828Z,101712.50
2022-10-06T00:32:57.393Z,101706.28
2022-10-06T00:35:25.796Z,101710.16
2022-10-06T00:37:52.948Z,101706.56
2022-10-06T00:40:20.185Z,101705.03
2022-10-06T00:42:59.627Z,101710.50
2022-10-06T00:45:34.281Z,101706.06
2022-10-06T00:48:05.715Z,101709.59
2022-10-06T00:50:33.337Z,101703.72
2022-10-06T00:53:00.175Z,101697.63
2022-10-06T00:55:26.968Z,101707.63
2022-10-06T00:57:53.908Z,101699.88
2022-10-06T01:00:20.812Z,101708.97
2022-10-06T01:02:57.097Z,101704.53
2022-10-06T01:05:30.386Z,101702.97
2022-10-06T01:07:57.995Z,101708.47
2022-10-06T01:10:24.879Z,101711.34
2022-10-06T01:12:52.171Z,101707.94
2022-10-06T01:15:19.910Z,101706.22
2022-10-06T01:18:01.133Z,101708.28
2022-10-06T01:20:29.423Z,101710.22
2022-10-06T01:23:00.803Z,101712.91
2022-10-06T01:25:28.361Z,101711.31
2022-10-06T01:27:55.993Z,101710.44
2022-10-06T01:30:27.703Z,101715.06
2022-10-06T01:32:54.514Z,101724.25
2022-10-06T01:35:21.286Z,101713.88
2022-10-06T01:37:51.769Z,101721.44
2022-10-06T01:40:19.238Z,101719.88
2022-10-06T01:42:46.244Z,101722.34
2022-10-06T01:45:13.106Z,101720.59
2022-10-06T01:47:40.031Z,101723.34
2022-10-06T01:50:08.343Z,101723.50
2022-10-06T01:52:35.908Z,101720.56
2022-10-06T01:55:03.213Z,101720.56
2022-10-06T01:57:30.232Z,101716.03
2022-10-06T01:59:57.028Z,101720.56
2022-10-06T02:02:24.143Z,101720.75
2022-10-06T02:04:50.930Z,101719.84
2022-10-06T02:07:17.782Z,101716.31
2022-10-06T02:09:44.948Z,101726.38
2022-10-06T02:12:11.706Z,101687.47
2022-10-06T02:14:38.519Z,101726.13
2022-10-06T02:17:06.593Z,101730.12
2022-10-06T02:19:33.383Z,101725.50
2022-10-06T02:22:00.190Z,101728.19
2022-10-06T02:24:27.000Z,101734.47
2022-10-06T02:26:54.071Z,101733.72
2022-10-06T02:29:21.019Z,101733.69
2022-10-06T02:31:49.194Z,101737.31
2022-10-06T02:34:16.193Z,101742.47
2022-10-06T02:36:43.039Z,101736.25
2022-10-06T02:39:10.934Z,101729.03
2022-10-06T02:41:37.752Z,101735.31
2022-10-06T02:44:05.208Z,101727.38
2022-10-06T02:46:32.477Z,101731.97
2022-10-06T02:48:59.447Z,101729.34
2022-10-06T02:51:26.874Z,101722.56
2022-10-06T02:53:54.469Z,101731.66
2022-10-06T02:56:23.383Z,101723.72
2022-10-06T02:58:51.679Z,101728.97
2022-10-06T03:01:21.265Z,101733.50
2022-10-06T03:03:48.256Z,101725.50
2022-10-06T03:06:22.720Z,101729.06
2022-10-06T03:09:04.649Z,101731.75
2022-10-06T03:11:34.283Z,101734.47
2022-10-06T03:14:01.135Z,101735.75
2022-10-06T03:16:31.042Z,101734.75
2022-10-06T03:18:58.378Z,101727.56
2022-10-06T03:21:27.186Z,101735.63
2022-10-06T03:23:54.857Z,101739.38
2022-10-06T03:26:29.245Z,101733.25
2022-10-06T03:28:56.725Z,101744.00
2022-10-06T03:31:29.131Z,101740.59
2022-10-06T03:33:56.774Z,101742.28
2022-10-06T03:36:25.451Z,101737.59
2022-10-06T03:38:52.814Z,101740.06
2022-10-06T03:41:21.890Z,101747.09
2022-10-06T03:43:50.163Z,101727.94
2022-10-06T03:46:19.874Z,101742.03
2022-10-06T03:48:47.785Z,101753.38
2022-10-06T03:51:19.689Z,101752.00
2022-10-06T03:53:48.875Z,101746.13
2022-10-06T03:56:23.242Z,101748.16
2022-10-06T03:58:57.973Z,101758.25
2022-10-06T04:01:27.857Z,101756.28
2022-10-06T04:03:56.543Z,101765.16
2022-10-06T04:06:24.572Z,101757.22
2022-10-06T04:08:52.859Z,101772.06
2022-10-06T04:11:25.174Z,101776.59
2022-10-06T04:14:00.603Z,101772.03
2022-10-06T04:16:30.019Z,101769.37
2022-10-06T04:18:58.855Z,101771.19
2022-10-06T04:21:27.117Z,101766.69
2022-10-06T04:23:54.900Z,101754.53
2022-10-06T04:26:23.138Z,101768.41
2022-10-06T04:28:50.398Z,101770.06
2022-10-06T04:31:25.892Z,101775.31
2022-10-06T04:33:54.388Z,101772.63
2022-10-06T04:36:23.885Z,101763.84
2022-10-06T04:38:51.455Z,101765.66
2022-10-06T04:41:20.228Z,101759.41
2022-10-06T04:43:47.928Z,101763.84
2022-10-06T04:46:40.764Z,101758.50
2022-10-06T04:49:02.493Z,101763.75
2022-10-06T04:51:29.756Z,101757.84
2022-10-06T04:53:56.681Z,101758.81
2022-10-06T04:56:29.648Z,101767.81
2022-10-06T04:58:57.924Z,101762.47
2022-10-06T05:01:27.350Z,101766.09
2022-10-06T05:03:58.928Z,101768.81
2022-10-06T05:06:30.866Z,101773.81
2022-10-06T05:09:03.409Z,101772.63
2022-10-06T05:11:31.829Z,101761.75
2022-10-06T05:13:59.180Z,101769.34
2022-10-06T05:16:28.352Z,101762.37
2022-10-06T05:18:55.544Z,101775.94
2022-10-06T05:21:27.924Z,101778.12
2022-10-06T05:23:54.799Z,101759.31
2022-10-06T05:26:24.010Z,101771.28
2022-10-06T05:28:50.939Z,101776.28
2022-10-06T05:31:29.006Z,101776.78
2022-10-06T05:33:57.261Z,101780.13
2022-10-06T05:36:29.865Z,101770.81
2022-10-06T05:38:57.461Z,101777.41
2022-10-06T05:41:26.530Z,101785.22
2022-10-06T05:43:53.378Z,101784.06
2022-10-06T05:46:24.963Z,101777.19
2022-10-06T05:48:55.524Z,101766.97
2022-10-06T05:51:30.126Z,101775.66
2022-10-06T05:53:57.880Z,101774.59
2022-10-06T05:56:26.780Z,101782.16
2022-10-06T05:58:55.074Z,101784.03
2022-10-06T06:01:28.381Z,101774.84
2022-10-06T06:03:56.561Z,101780.31
2022-10-06T06:06:26.210Z,101780.53
2022-10-06T06:09:01.457Z,101789.53
2022-10-06T06:11:31.412Z,101786.03
2022-10-06T06:14:09.518Z,101796.25
2022-10-06T06:16:39.149Z,101790.25
2022-10-06T06:19:07.673Z,101784.19
2022-10-06T06:21:34.624Z,101801.62
2022-10-06T06:24:02.576Z,101803.66
2022-10-06T06:26:31.655Z,101815.22
2022-10-06T06:29:02.705Z,101815.16
2022-10-06T06:31:39.894Z,101812.31
2022-10-06T06:34:07.473Z,101819.16
2022-10-06T06:36:40.840Z,101803.75
2022-10-06T06:39:12.279Z,101814.59
2022-10-06T06:41:41.308Z,101819.94
2022-10-06T06:44:11.183Z,101828.78
2022-10-06T06:46:39.114Z,101828.41
2022-10-06T06:49:06.967Z,101829.81
2022-10-06T06:51:35.542Z,101833.44
2022-10-06T06:54:02.770Z,101830.44
2022-10-06T06:56:35.047Z,101836.66
2022-10-06T06:59:10.834Z,101840.09
2022-10-06T07:01:39.263Z,101845.94
2022-10-06T07:04:06.328Z,101821.41
2022-10-06T07:06:33.295Z,101841.62
2022-10-06T07:09:00.708Z,101842.84
2022-10-06T07:11:32.816Z,101849.81
2022-10-06T07:14:02.100Z,101853.06
2022-10-06T07:16:49.444Z,101848.28
2022-10-06T07:19:36.720Z,101854.97
2022-10-06T07:22:34.344Z,101850.00
2022-10-06T07:25:08.563Z,101846.22
2022-10-06T07:27:42.240Z,101854.56
2022-10-06T07:30:23.653Z,101858.34
2022-10-06T07:32:51.647Z,101851.63
2022-10-06T07:35:22.521Z,101859.22
2022-10-06T07:37:53.169Z,101849.19
2022-10-06T07:40:20.187Z,101842.66
2022-10-06T07:42:52.051Z,101845.19
2022-10-06T07:45:45.015Z,101846.31
2022-10-06T07:48:14.489Z,101848.06
2022-10-06T07:50:42.756Z,101833.03
2022-10-06T07:53:10.067Z,101832.81
2022-10-06T07:55:39.895Z,101823.66
2022-10-06T07:58:33.525Z,101822.66
2022-10-06T08:01:08.814Z,101823.87
2022-10-06T08:03:37.596Z,101828.12
2022-10-06T08:06:05.062Z,101816.37
2022-10-06T08:08:37.940Z,101816.00
2022-10-06T08:11:06.587Z,101810.72
2022-10-06T08:13:35.592Z,101805.06
2022-10-06T08:16:16.610Z,101807.25
2022-10-06T08:18:46.849Z,101814.66
2022-10-06T08:21:34.441Z,101811.12
2022-10-06T08:24:02.378Z,101805.88
2022-10-06T08:26:31.023Z,101808.97
2022-10-06T08:29:00.379Z,101813.41
2022-10-06T08:31:27.367Z,101796.81
2022-10-06T08:33:56.749Z,101794.03
2022-10-06T08:36:30.903Z,101796.53
2022-10-06T08:38:58.718Z,101788.69
2022-10-06T08:41:39.650Z,101783.69
2022-10-06T08:44:13.227Z,101773.50
2022-10-06T08:47:04.281Z,101760.94
2022-10-06T08:49:39.821Z,101755.91
2022-10-06T08:52:34.164Z,101758.75
2022-10-06T08:59:06.409Z,101756.81
2022-10-06T09:08:43.409Z,101763.66
2022-10-06T09:11:38.135Z,101768.66
2022-10-06T09:14:14.128Z,101754.75
2022-10-06T09:16:42.893Z,101749.88
2022-10-06T09:19:17.366Z,101758.87
2022-10-06T09:21:50.311Z,101766.81
2022-10-06T09:24:20.679Z,101739.47
2022-10-06T09:26:49.586Z,101762.19
2022-10-06T09:29:16.960Z,101772.22
2022-10-06T09:31:51.031Z,101760.47
2022-10-06T09:34:51.671Z,101770.78
2022-10-06T09:37:18.628Z,101755.59
2022-10-06T09:39:51.116Z,101768.03
2022-10-06T09:42:31.166Z,101774.31
2022-10-06T09:45:05.033Z,101732.34
2022-10-06T09:47:42.139Z,101754.25
2022-10-06T09:50:10.403Z,101749.44
2022-10-06T09:52:37.721Z,101752.31
2022-10-06T09:55:17.924Z,101753.56
2022-10-06T09:57:49.499Z,101739.38
2022-10-06T10:00:28.163Z,101746.53
2022-10-06T10:03:00.217Z,101742.94
2022-10-06T10:05:37.674Z,101749.72
2022-10-06T10:08:22.203Z,101743.91
2022-10-06T10:10:50.771Z,101720.91
2022-10-06T10:13:20.549Z,101718.41
2022-10-06T10:15:56.062Z,101733.53
2022-10-06T10:18:26.845Z,101724.28
2022-10-06T10:20:58.431Z,101714.00
2022-10-06T10:23:32.847Z,101727.81
2022-10-06T10:26:14.312Z,101729.81
2022-10-06T10:28:57.316Z,101727.12
2022-10-06T10:31:39.198Z,101717.00
2022-10-06T10:34:12.669Z,101717.31
2022-10-06T10:36:45.876Z,101718.59
2022-10-06T10:39:37.770Z,101710.28
2022-10-06T10:42:12.548Z,101685.41
2022-10-06T10:44:47.395Z,101726.53
2022-10-06T10:47:16.683Z,101695.22
2022-10-06T10:49:48.632Z,101694.91
2022-10-06T10:52:20.741Z,101699.56
2022-10-06T10:55:19.691Z,101694.31
2022-10-06T10:57:47.156Z,101705.84
2022-10-06T11:00:22.973Z,101694.63
2022-10-06T11:02:55.005Z,101684.94
2022-10-06T11:05:48.232Z,101684.31
2022-10-06T11:08:28.786Z,101681.41
2022-10-06T11:10:58.977Z,101665.59
2022-10-06T11:13:43.503Z,101673.28
2022-10-06T11:16:52.803Z,101668.06
2022-10-06T11:19:39.514Z,101670.34
2022-10-06T11:22:15.211Z,101649.53
2022-10-06T11:25:15.877Z,101659.84
2022-10-06T11:27:48.655Z,101649.47
2022-10-06T11:30:19.618Z,101648.00
2022-10-06T11:33:26.363Z,101655.75
2022-10-06T11:35:53.271Z,101648.59
2022-10-06T11:38:44.417Z,101664.91
2022-10-06T11:41:21.219Z,101654.44
2022-10-06T11:44:12.557Z,101637.25
2022-10-06T11:46:51.444Z,101635.69
2022-10-06T11:49:30.778Z,101613.97
2022-10-06T11:52:17.527Z,101630.06
2022-10-06T11:54:51.644Z,101649.81
2022-10-06T11:57:30.328Z,101651.63
2022-10-06T12:00:16.244Z,101659.06
2022-10-06T12:02:44.933Z,101637.22
2022-10-06T12:08:01.762Z,101657.06
2022-10-06T12:10:29.044Z,101661.44
2022-10-06T12:13:32.402Z,101660.47
2022-10-06T12:19:19.462Z,101659.31
2022-10-06T12:21:57.606Z,101657.97
2022-10-06T12:24:41.828Z,101657.37
2022-10-06T12:27:25.922Z,101665.38
2022-10-06T12:29:59.261Z,101654.72
2022-10-06T12:32:37.884Z,101660.87
2022-10-06T12:35:16.573Z,101663.16
2022-10-06T12:37:54.543Z,101664.34
2022-10-06T12:40:40.978Z,101664.44
2022-10-06T12:43:17.561Z,101660.00
2022-10-06T12:45:50.351Z,101651.09
2022-10-06T12:48:41.636Z,101650.50
2022-10-06T12:54:20.506Z,101637.81
2022-10-06T12:57:13.813Z,101624.22
2022-10-06T12:59:42.187Z,101627.09
2022-10-06T13:02:13.071Z,101623.34
2022-10-06T13:04:43.089Z,101626.28
2022-10-06T13:07:30.639Z,101624.72
2022-10-06T13:10:10.560Z,101625.72
2022-10-06T13:12:38.379Z,101612.28
2022-10-06T13:15:29.529Z,101629.69
2022-10-06T13:18:18.392Z,101630.69
2022-10-06T13:20:57.789Z,101611.44
2022-10-06T13:23:27.645Z,101616.78
2022-10-06T13:26:02.509Z,101617.75
2022-10-06T13:28:31.358Z,101600.50
2022-10-06T13:33:40.273Z,101614.03
2022-10-06T13:36:08.618Z,101613.37
2022-10-06T13:38:37.506Z,101617.97
2022-10-06T13:41:14.691Z,101606.34
2022-10-06T13:43:44.772Z,101611.75
2022-10-06T13:46:13.959Z,101605.12
2022-10-06T13:48:55.274Z,101616.19
2022-10-06T13:51:25.885Z,101623.63
2022-10-06T13:53:52.960Z,101632.09
2022-10-06T13:59:19.900Z,101649.31
2022-10-06T14:01:47.037Z,101666.97
2022-10-06T14:04:20.770Z,101670.19
2022-10-06T14:06:58.981Z,101681.19
2022-10-06T14:09:27.782Z,101681.16
2022-10-06T14:12:05.601Z,101677.34
2022-10-06T14:14:33.162Z,101684.34
2022-10-06T14:17:00.030Z,101681.81
2022-10-06T14:19:35.891Z,101670.09
2022-10-06T14:22:04.987Z,101674.09
2022-10-06T14:24:34.366Z,101683.56
2022-10-06T14:27:02.917Z,101682.88
2022-10-06T14:29:34.277Z,101693.41
2022-10-06T14:32:17.938Z,101686.72
2022-10-06T14:34:45.342Z,101699.13
2022-10-06T14:37:15.239Z,101697.38
2022-10-06T14:39:43.214Z,101716.81
2022-10-06T14:42:11.003Z,101709.78
2022-10-06T14:44:38.643Z,101729.91
2022-10-06T14:47:08.283Z,101723.34
2022-10-06T14:49:37.720Z,101718.50
2022-10-06T14:52:09.165Z,101725.50
2022-10-06T14:54:36.604Z,101733.69
2022-10-06T14:57:04.912Z,101753.38
2022-10-06T14:59:31.981Z,101747.75
2022-10-06T15:01:58.902Z,101752.84
2022-10-06T15:04:27.930Z,101758.41
2022-10-06T15:07:14.054Z,101756.41
2022-10-06T15:09:40.975Z,101769.78
2022-10-06T15:12:07.938Z,101760.47
2022-10-06T15:14:39.466Z,101773.50
2022-10-06T15:17:06.630Z,101779.06
2022-10-06T15:19:34.310Z,101779.28
2022-10-06T15:22:01.400Z,101775.47
2022-10-06T15:24:28.241Z,101783.63
2022-10-06T15:27:13.616Z,101778.03
2022-10-06T15:29:40.525Z,101782.69
2022-10-06T15:32:08.272Z,101780.59
2022-10-06T15:34:37.624Z,101794.62
2022-10-06T15:37:05.042Z,101799.25
2022-10-06T15:39:37.801Z,101805.53
2022-10-06T15:42:05.350Z,101797.84
2022-10-06T15:44:34.481Z,101786.81
2022-10-06T15:47:02.506Z,101813.31
2022-10-06T15:49:34.490Z,101813.00
2022-10-06T15:52:03.599Z,101826.72
2022-10-06T15:54:39.489Z,101821.19
2022-10-06T15:57:14.982Z,101820.00
2022-10-06T15:59:44.932Z,101819.22
2022-10-06T16:02:17.013Z,101822.16
2022-10-06T16:05:09.194Z,101824.53
2022-10-06T16:07:36.275Z,101834.53
2022-10-06T16:10:03.444Z,101824.97
2022-10-06T16:12:30.519Z,101830.69
2022-10-06T16:15:01.905Z,101836.34
2022-10-06T16:17:29.101Z,101836.00
2022-10-06T16:19:56.597Z,101833.94
2022-10-06T16:22:23.501Z,101837.63
2022-10-06T16:24:50.404Z,101846.84
2022-10-06T16:27:17.351Z,101845.00
2022-10-06T16:29:44.189Z,101847.91
2022-10-06T16:32:10.999Z,101856.38
2022-10-06T16:34:39.706Z,101859.47
2022-10-06T16:37:06.514Z,101858.09
2022-10-06T16:39:33.385Z,101877.75
2022-10-06T16:42:00.272Z,101891.31
2022-10-06T16:44:27.150Z,101907.19
2022-10-06T16:46:54.072Z,101901.19
2022-10-06T16:49:21.210Z,101898.88
2022-10-06T16:51:48.139Z,101895.63
2022-10-06T16:54:17.322Z,101893.78
2022-10-06T16:56:46.512Z,101870.09
2022-10-06T16:59:15.876Z,101889.81
2022-10-06T17:01:42.864Z,101886.44
2022-10-06T17:04:11.175Z,101887.69
2022-10-06T17:06:50.029Z,101878.59
2022-10-06T17:09:19.475Z,101867.00
2022-10-06T17:11:51.317Z,101884.69
2022-10-06T17:14:21.503Z,101886.81
2022-10-06T17:16:51.101Z,101887.09
2022-10-06T17:19:19.615Z,101889.22
2022-10-06T17:21:49.630Z,101875.94
2022-10-06T17:24:19.156Z,101882.00
2022-10-06T17:26:49.831Z,101886.12
2022-10-06T17:29:21.133Z,101890.78
2022-10-06T17:31:50.209Z,101890.78
2022-10-06T17:34:21.714Z,101890.00
2022-10-06T17:36:51.457Z,101887.41
2022-10-06T17:39:22.095Z,101886.38
2022-10-06T17:41:51.436Z,101892.94
2022-10-06T17:44:23.896Z,101884.91
2022-10-06T17:46:53.835Z,101884.72
2022-10-06T17:49:22.233Z,101884.13
2022-10-06T17:51:50.479Z,101888.84
2022-10-06T17:54:20.131Z,101893.75
2022-10-06T17:56:52.676Z,101898.69
2022-10-06T17:59:25.185Z,101886.28
2022-10-06T18:01:56.331Z,101892.84
2022-10-06T18:04:23.417Z,101893.12
2022-10-06T18:06:53.207Z,101894.94
2022-10-06T18:09:20.767Z,101897.16
2022-10-06T18:11:55.902Z,101894.03
2022-10-06T18:14:30.220Z,101894.37
2022-10-06T18:17:00.366Z,101900.22
2022-10-06T18:19:32.400Z,101906.72
2022-10-06T18:22:11.623Z,101905.91
2022-10-06T18:24:38.931Z,101904.31
2022-10-06T18:27:07.888Z,101908.19
2022-10-06T18:29:38.162Z,101912.22
2022-10-06T18:36:12.213Z,101910.00
2022-10-06T18:37:41.436Z,101915.75
2022-10-06T18:40:10.149Z,101924.03
2022-10-06T18:42:38.113Z,101918.88
2022-10-06T18:45:24.511Z,101900.84
2022-10-06T18:48:10.115Z,101909.62
2022-10-06T18:50:37.241Z,101905.69
2022-10-06T18:53:04.389Z,101908.56
2022-10-06T18:55:31.912Z,101916.66
2022-10-06T18:57:59.382Z,101923.19
2022-10-06T19:00:26.329Z,101921.00
2022-10-06T19:02:55.485Z,101920.34
2022-10-06T19:05:23.458Z,101913.62
2022-10-06T19:07:53.006Z,101925.06
2022-10-06T19:10:19.890Z,101917.47
2022-10-06T19:12:48.224Z,101934.69
2022-10-06T19:15:20.053Z,101934.03
2022-10-06T19:17:48.015Z,101926.75
2022-10-06T19:20:15.165Z,101936.97
2022-10-06T19:22:43.440Z,101939.91
2022-10-06T19:25:11.235Z,101940.56
2022-10-06T19:27:38.080Z,101941.50
2022-10-06T19:30:06.696Z,101931.66
2022-10-06T19:32:33.845Z,101928.81
2022-10-06T19:35:00.787Z,101941.97
2022-10-06T19:37:29.691Z,101929.94
2022-10-06T19:39:56.979Z,101945.87
2022-10-06T19:42:42.271Z,101943.25
2022-10-06T19:45:10.036Z,101945.97
2022-10-06T19:47:36.963Z,101954.91
2022-10-06T19:50:11.691Z,101954.97
2022-10-06T19:52:40.153Z,101958.97
2022-10-06T19:55:07.115Z,101965.47
2022-10-06T19:57:34.369Z,101969.09
2022-10-06T20:00:02.489Z,101969.19
2022-10-06T20:02:30.694Z,101972.81
2022-10-06T20:04:57.525Z,101978.59
2022-10-06T20:07:27.548Z,101972.13
2022-10-06T20:09:58.459Z,101962.37
2022-10-06T20:12:26.918Z,101972.94
2022-10-06T20:14:53.945Z,101984.88
2022-10-06T20:17:21.180Z,101986.63
2022-10-06T20:19:53.937Z,101979.34
2022-10-06T20:22:24.242Z,101984.00
2022-10-06T20:24:52.227Z,101977.75
2022-10-06T20:27:19.701Z,101985.00
2022-10-06T20:29:46.743Z,101987.09
2022-10-06T20:32:14.186Z,101992.94
2022-10-06T20:34:41.095Z,101986.91
2022-10-06T20:37:08.038Z,101983.41
2022-10-06T20:39:53.375Z,101989.84
2022-10-06T20:42:20.978Z,101990.41
2022-10-06T20:44:48.067Z,101987.31
2022-10-06T20:47:16.546Z,101979.78
2022-10-06T20:49:43.950Z,101983.69
2022-10-06T20:52:14.431Z,101987.09
2022-10-06T20:54:41.696Z,101986.81
2022-10-06T20:57:09.653Z,101985.50
2022-10-06T20:59:40.751Z,101997.72
2022-10-06T21:02:07.680Z,101999.59
2022-10-06T21:04:34.794Z,101998.44
2022-10-06T21:07:05.658Z,101996.47
2022-10-06T21:09:33.131Z,101993.06
2022-10-06T21:12:00.297Z,102000.22
2022-10-06T21:14:27.160Z,102001.22
2022-10-06T21:16:54.528Z,101996.78
2022-10-06T21:19:21.455Z,102005.09
2022-10-06T21:21:53.663Z,102005.12
2022-10-06T21:24:20.689Z,102003.69
2022-10-06T21:26:48.679Z,101997.34
2022-10-06T21:29:16.085Z,102002.94
2022-10-06T21:31:44.625Z,101999.28
2022-10-06T21:34:12.171Z,102006.53
2022-10-06T21:36:38.940Z,102000.72
2022-10-06T21:39:06.449Z,102005.66
2022-10-06T21:41:38.545Z,101999.22
2022-10-06T21:44:06.484Z,102008.59
2022-10-06T21:46:41.791Z,102000.81
2022-10-06T21:49:13.531Z,101996.94
2022-10-06T21:51:41.667Z,101998.34
2022-10-06T21:54:10.381Z,101994.75
2022-10-06T21:56:37.654Z,101987.00
2022-10-06T21:59:04.828Z,101991.28
2022-10-06T22:01:34.200Z,102000.28
2022-10-06T22:04:01.488Z,101994.62
2022-10-06T22:06:32.528Z,101997.16
2022-10-06T22:08:59.778Z,101998.91
2022-10-06T22:11:31.996Z,101999.03
2022-10-06T22:14:01.224Z,101997.31
2022-10-06T22:16:30.573Z,101999.91
2022-10-06T22:18:57.608Z,102000.03
2022-10-06T22:21:26.707Z,101991.66
2022-10-06T22:23:58.685Z,101997.59
2022-10-06T22:26:26.601Z,101994.03
2022-10-06T22:28:54.633Z,101999.50
2022-10-06T22:31:25.733Z,101993.16
2022-10-06T22:33:55.572Z,101993.31
2022-10-06T22:36:22.909Z,102000.81
2022-10-06T22:38:50.286Z,101999.06
2022-10-06T22:41:18.452Z,101992.84
2022-10-06T22:43:45.449Z,101997.31
2022-10-06T22:46:12.637Z,101996.41
2022-10-06T22:48:39.813Z,101986.91
2022-10-06T22:51:07.150Z,101987.56
2022-10-06T22:53:33.971Z,101984.97
2022-10-06T22:56:01.926Z,101989.66
2022-10-06T22:58:28.983Z,101977.59
2022-10-06T23:00:56.194Z,101979.97
2022-10-06T23:03:23.527Z,101970.09
2022-10-06T23:05:58.002Z,101975.59
2022-10-06T23:08:25.359Z,101973.88
2022-10-06T23:10:52.439Z,101972.97
2022-10-06T23:13:19.989Z,101971.31
2022-10-06T23:15:46.909Z,101980.62
2022-10-06T23:18:14.107Z,101983.75
2022-10-06T23:20:41.006Z,101984.41
2022-10-06T23:23:07.808Z,101979.78
2022-10-06T23:25:38.519Z,101982.31
2022-10-06T23:28:05.692Z,101981.59
2022-10-06T23:30:35.105Z,101986.00
2022-10-06T23:33:02.701Z,101981.63
2022-10-06T23:35:29.761Z,101984.41
2022-10-06T23:37:56.718Z,101987.09
2022-10-06T23:40:23.794Z,101969.47
2022-10-06T23:42:50.655Z,101987.38
2022-10-06T23:45:17.556Z,101998.31
2022-10-06T23:47:44.541Z,101986.94
2022-10-06T23:50:11.674Z,101986.16
2022-10-06T23:52:38.511Z,101985.19
2022-10-06T23:55:05.830Z,101996.94
2022-10-06T23:57:32.692Z,101991.62
2022-10-06T23:59:59.806Z,101982.75
